Time;durP1;ratioP1;P1;durP2;ratioP2;P2;SDS_P1;SDS_P2;PMS_P1;PMS_P2;Temp;Humidity;BMP_temperature;BMP_pressure;BME280_temperature;BME280_humidity;BME280_pressure;Samples;Min_cycle;Max_cycle;Signal;HPM_P1;HPM_P2
2022/06/30 00:00:37;;;;;;;8.30;7.33;;;;;;;20.38;92.75;100327.34;1641953;87;21074;-62
2022/06/30 00:03:06;;;;;;;11.70;7.58;;;;;;;20.43;93.06;100328.26;1639747;87;21475;-64
2022/06/30 00:05:35;;;;;;;12.55;7.03;;;;;;;20.49;93.06;100322.19;1639488;87;21075;-61
2022/06/30 00:08:05;;;;;;;9.45;7.03;;;;;;;20.54;92.94;100319.45;1641827;87;21050;-61
2022/06/30 00:10:35;;;;;;;8.83;7.12;;;;;;;20.58;92.54;100314.47;1641372;87;21075;-61
2022/06/30 00:13:04;;;;;;;8.20;6.87;;;;;;;20.62;92.55;100317.56;1642184;87;21090;-61
2022/06/30 00:15:35;;;;;;;12.53;7.37;;;;;;;20.67;92.11;100318.99;1641658;87;21090;-60
2022/06/30 00:18:05;;;;;;;8.65;7.10;;;;;;;20.68;91.51;100315.10;1628935;87;21106;-61
2022/06/30 00:20:34;;;;;;;8.25;6.92;;;;;;;20.64;90.90;100328.43;1641480;87;21074;-60
2022/06/30 00:23:04;;;;;;;8.45;6.87;;;;;;;20.59;90.82;100329.23;1642433;86;21047;-62
2022/06/30 00:25:33;;;;;;;8.23;6.55;;;;;;;20.58;90.70;100335.91;1640678;87;21138;-61
2022/06/30 00:28:03;;;;;;;10.15;7.30;;;;;;;20.57;90.61;100332.28;1639058;87;21078;-61
2022/06/30 00:30:33;;;;;;;9.28;6.83;;;;;;;20.55;90.56;100342.84;1641610;87;21490;-60
2022/06/30 00:33:02;;;;;;;9.20;7.03;;;;;;;20.55;90.44;100351.75;1639236;87;21098;-60
2022/06/30 00:35:31;;;;;;;10.15;6.45;;;;;;;20.52;90.35;100349.49;1641415;87;21066;-60
2022/06/30 00:38:00;;;;;;;9.55;7.00;;;;;;;20.51;90.52;100340.30;1641551;87;21066;-61
2022/06/30 00:40:39;;;;;;;10.30;7.22;;;;;;;20.56;90.84;100342.29;1639814;87;21050;-61
2022/06/30 00:43:09;;;;;;;11.18;7.08;;;;;;;20.63;90.91;100351.81;1638973;87;21141;-60
2022/06/30 00:45:46;;;;;;;8.85;7.15;;;;;;;20.67;90.60;100366.88;1641438;87;21050;-61
2022/06/30 00:48:17;;;;;;;11.48;7.40;;;;;;;20.69;90.34;100374.42;1628763;87;21085;-60
2022/06/30 00:50:46;;;;;;;9.83;6.87;;;;;;;20.70;90.33;100371.37;1641442;87;21518;-60
2022/06/30 00:53:16;;;;;;;10.70;7.37;;;;;;;20.72;90.30;100375.28;1639878;87;21050;-61
2022/06/30 00:55:46;;;;;;;11.08;7.67;;;;;;;20.73;90.08;100374.17;1639137;87;21081;-61
2022/06/30 00:58:16;;;;;;;9.18;7.60;;;;;;;20.74;90.02;100368.89;1641866;87;21432;-61
2022/06/30 01:00:46;;;;;;;8.85;7.67;;;;;;;20.74;90.07;100368.34;1602860;88;21480;-61
2022/06/30 01:03:15;;;;;;;12.18;7.90;;;;;;;20.74;90.15;100362.77;1630411;88;21110;-60
2022/06/30 01:05:46;;;;;;;9.33;7.60;;;;;;;20.72;89.65;100355.78;1578972;89;21536;-61
2022/06/30 01:08:16;;;;;;;9.35;7.50;;;;;;;20.70;89.63;100347.70;1607945;88;21144;-61
2022/06/30 01:13:34;;;;;;;11.38;8.50;;;;;;;20.69;89.40;100342.39;1622505;88;21091;-61
2022/06/30 01:16:04;;;;;;;12.40;8.40;;;;;;;20.68;89.24;100351.30;1627436;88;21039;-61
2022/06/30 01:18:34;;;;;;;11.12;8.63;;;;;;;20.69;89.25;100361.89;1617674;88;21074;-61
2022/06/30 01:21:03;;;;;;;11.88;9.30;;;;;;;20.66;89.01;100349.89;1604314;89;21052;-60
2022/06/30 01:23:33;;;;;;;12.30;9.85;;;;;;;20.64;89.25;100343.75;1630986;88;21086;-61
2022/06/30 01:26:02;;;;;;;11.95;9.10;;;;;;;20.66;89.22;100346.55;1632651;88;21063;-62
2022/06/30 01:28:32;;;;;;;12.63;9.85;;;;;;;20.68;89.17;100347.12;1620142;88;21058;-62
2022/06/30 01:31:01;;;;;;;10.40;9.30;;;;;;;20.67;88.82;100350.17;1617490;89;21050;-61
2022/06/30 01:33:30;;;;;;;10.60;9.35;;;;;;;20.64;88.57;100347.38;1616783;89;21086;-62
2022/06/30 01:35:59;;;;;;;11.57;9.93;;;;;;;20.59;88.06;100351.50;1618260;88;21106;-61
2022/06/30 01:38:28;;;;;;;10.48;8.88;;;;;;;20.57;87.95;100351.77;1617835;89;21527;-61
2022/06/30 01:40:57;;;;;;;12.85;8.18;;;;;;;20.56;87.96;100347.86;1617829;89;21062;-61
2022/06/30 01:43:27;;;;;;;11.73;8.25;;;;;;;20.52;87.65;100356.45;1617834;89;21494;-62
2022/06/30 01:45:57;;;;;;;8.85;7.47;;;;;;;20.47;87.80;100351.67;1617842;89;21106;-62
2022/06/30 01:48:27;;;;;;;10.88;7.75;;;;;;;20.46;87.60;100347.22;1617337;88;21506;-62
2022/06/30 01:50:56;;;;;;;12.95;8.15;;;;;;;20.43;87.24;100349.13;1617668;89;21146;-60
2022/06/30 01:53:26;;;;;;;10.03;8.40;;;;;;;20.32;86.81;100343.70;1617596;89;21509;-60
2022/06/30 01:55:55;;;;;;;11.20;7.67;;;;;;;20.28;87.14;100348.11;1617691;89;21093;-61
2022/06/30 01:58:24;;;;;;;11.10;7.67;;;;;;;20.29;86.92;100342.84;1617692;89;21102;-63
2022/06/30 02:00:54;;;;;;;10.32;7.80;;;;;;;20.24;86.33;100349.19;1630188;87;21062;-61
2022/06/30 02:03:23;;;;;;;10.00;7.78;;;;;;;20.20;86.39;100348.03;1638532;87;21087;-63
2022/06/30 02:05:54;;;;;;;10.03;7.50;;;;;;;20.14;86.25;100349.89;1629991;87;21063;-62
2022/06/30 02:08:23;;;;;;;12.07;7.12;;;;;;;20.11;86.37;100342.63;1630754;87;21070;-61
2022/06/30 02:10:53;;;;;;;11.97;7.35;;;;;;;20.08;86.41;100341.75;1615198;87;21078;-62
2022/06/30 02:13:23;;;;;;;7.97;6.20;;;;;;;20.08;86.54;100336.19;1632046;87;21062;-61
2022/06/30 02:15:53;;;;;;;8.45;6.72;;;;;;;20.11;86.19;100349.58;1625210;87;21467;-61
2022/06/30 02:18:22;;;;;;;10.50;6.92;;;;;;;20.09;86.24;100351.23;1626435;87;21129;-60
2022/06/30 02:20:51;;;;;;;12.30;6.55;;;;;;;20.08;86.28;100345.92;1634261;87;21140;-62
2022/06/30 02:23:20;;;;;;;10.08;6.37;;;;;;;20.11;86.22;100342.63;1634956;87;21062;-63
2022/06/30 02:25:49;;;;;;;8.78;6.58;;;;;;;20.13;86.02;100343.20;1623388;87;21710;-62
2022/06/30 02:28:19;;;;;;;8.35;6.75;;;;;;;20.07;85.47;100350.66;1635495;87;21122;-61
2022/06/30 02:30:48;;;;;;;9.03;6.85;;;;;;;20.03;85.70;100355.61;1634837;87;21663;-61
2022/06/30 02:33:18;;;;;;;9.28;6.58;;;;;;;20.02;86.06;100355.32;1631258;86;21157;-61
2022/06/30 02:35:47;;;;;;;10.32;6.87;;;;;;;20.01;86.35;100351.70;1628787;87;21055;-61
2022/06/30 02:38:17;;;;;;;11.73;7.60;;;;;;;19.95;86.41;100364.70;1633063;87;21057;-61
2022/06/30 02:40:46;;;;;;;7.95;6.70;;;;;;;19.87;86.91;100372.67;1633931;87;21113;-61
2022/06/30 02:43:15;;;;;;;10.93;7.15;;;;;;;19.82;87.36;100370.67;1622238;86;21014;-61
2022/06/30 02:45:44;;;;;;;9.60;6.83;;;;;;;19.80;87.64;100359.52;1628468;87;21471;-62
2022/06/30 02:48:15;;;;;;;11.57;6.35;;;;;;;19.80;87.86;100361.75;1624745;87;21043;-62
2022/06/30 02:50:44;;;;;;;8.75;6.72;;;;;;;19.80;88.06;100360.36;1616803;87;21451;-61
2022/06/30 02:53:14;;;;;;;8.20;6.83;;;;;;;19.84;88.19;100354.56;1625200;87;21037;-60
2022/06/30 02:55:43;;;;;;;8.80;6.90;;;;;;;19.88;88.33;100355.72;1635064;87;21078;-61
2022/06/30 02:58:13;;;;;;;8.43;6.35;;;;;;;19.92;88.35;100362.45;1631491;87;21133;-61
2022/06/30 03:00:41;;;;;;;7.55;6.35;;;;;;;19.93;88.25;100357.17;1634525;87;21113;-61
2022/06/30 03:03:11;;;;;;;8.63;6.00;;;;;;;19.95;88.01;100364.70;1632041;86;21133;-61
2022/06/30 03:05:40;;;;;;;10.78;6.60;;;;;;;19.91;88.00;100367.72;1631461;87;22014;-60
2022/06/30 03:08:09;;;;;;;8.53;6.90;;;;;;;19.84;88.48;100372.64;1635211;87;21483;-61
2022/06/30 03:10:38;;;;;;;9.83;6.90;;;;;;;19.83;88.79;100370.95;1647358;87;21173;-62
2022/06/30 03:13:08;;;;;;;9.10;6.72;;;;;;;19.86;88.87;100366.27;1645076;86;21101;-61
2022/06/30 03:15:38;;;;;;;8.93;6.67;;;;;;;19.94;88.60;100364.41;1628189;87;21046;-61
2022/06/30 03:18:07;;;;;;;9.25;6.37;;;;;;;20.01;88.33;100366.16;1647676;86;21086;-61
2022/06/30 03:20:39;;;;;;;10.98;6.78;;;;;;;20.03;88.15;100365.34;1616692;87;21714;-61
2022/06/30 03:23:08;;;;;;;9.88;6.55;;;;;;;20.02;88.05;100367.28;1634930;87;21079;-61
2022/06/30 03:25:37;;;;;;;7.92;6.33;;;;;;;20.07;88.00;100367.89;1618644;88;21149;-61
2022/06/30 03:28:06;;;;;;;9.45;6.10;;;;;;;20.11;87.76;100366.27;1652107;86;22040;-60
2022/06/30 03:30:38;;;;;;;9.35;6.10;;;;;;;20.11;87.44;100365.72;1629430;86;21126;-62
2022/06/30 03:33:08;;;;;;;6.78;5.70;;;;;;;20.11;87.46;100367.66;1632332;87;21038;-60
2022/06/30 03:35:37;;;;;;;6.05;5.10;;;;;;;20.11;87.38;100371.28;1626493;87;21511;-61
2022/06/30 03:38:07;;;;;;;6.20;5.03;;;;;;;20.15;86.08;100379.95;1630043;87;21630;-62
2022/06/30 03:40:37;;;;;;;8.75;5.55;;;;;;;20.18;85.88;100381.69;1626182;87;21042;-61
2022/06/30 03:43:06;;;;;;;8.18;5.75;;;;;;;20.25;85.83;100383.71;1636059;86;21130;-60
2022/06/30 03:45:36;;;;;;;6.95;5.72;;;;;;;20.33;85.76;100390.75;1625686;86;21102;-60
2022/06/30 03:48:06;;;;;;;7.45;5.53;;;;;;;20.40;85.59;100390.02;1636272;86;21093;-61
2022/06/30 03:50:36;;;;;;;7.50;5.55;;;;;;;20.46;85.23;100386.18;1620928;87;21093;-61
2022/06/30 03:53:05;;;;;;;7.92;5.30;;;;;;;20.50;85.30;100383.16;1631595;87;21543;-60
2022/06/30 03:55:39;;;;;;;8.28;5.60;;;;;;;20.55;85.18;100386.55;1635672;87;21149;-62
2022/06/30 03:58:07;;;;;;;10.08;6.12;;;;;;;20.60;85.08;100385.20;1636428;87;21054;-60
2022/06/30 04:00:38;;;;;;;8.38;5.33;;;;;;;20.64;84.63;100388.30;1620847;87;21563;-62
2022/06/30 04:03:07;;;;;;;13.68;6.15;;;;;;;20.69;84.14;100377.20;1621903;87;21533;-61
2022/06/30 04:05:38;;;;;;;7.92;5.67;;;;;;;20.78;83.41;100381.18;1638815;87;21600;-62
2022/06/30 04:08:07;;;;;;;10.00;5.80;;;;;;;20.82;82.88;100380.97;1637398;87;21054;-61
2022/06/30 04:10:37;;;;;;;9.43;5.95;;;;;;;20.87;82.61;100383.23;1625764;87;21589;-61
2022/06/30 04:13:06;;;;;;;5.90;5.20;;;;;;;20.91;82.07;100389.12;1634244;87;21474;-62
2022/06/30 04:15:36;;;;;;;8.40;5.50;;;;;;;20.98;81.65;100388.89;1631946;87;21042;-63
2022/06/30 04:18:06;;;;;;;7.85;6.12;;;;;;;21.05;81.21;100386.16;1626775;87;21042;-61
2022/06/30 04:20:35;;;;;;;10.15;6.45;;;;;;;21.10;80.96;100387.59;1630249;87;21098;-60
2022/06/30 04:23:05;;;;;;;7.67;5.62;;;;;;;21.15;80.62;100384.84;1632257;87;21094;-61
2022/06/30 04:25:37;;;;;;;8.13;5.00;;;;;;;21.19;80.40;100390.16;1630606;87;21070;-63
2022/06/30 04:28:07;;;;;;;6.67;5.05;;;;;;;21.27;80.20;100389.41;1627632;87;21057;-62
2022/06/30 04:33:25;;;;;;;9.05;5.40;;;;;;;21.38;79.44;100398.96;1628382;87;21109;-62
2022/06/30 04:35:55;;;;;;;12.55;5.85;;;;;;;21.39;78.76;100392.28;1638700;87;21118;-61
2022/06/30 04:38:24;;;;;;;10.10;5.42;;;;;;;21.43;78.79;100393.41;1631887;87;21011;-62
2022/06/30 04:43:42;;;;;;;7.37;5.55;;;;;;;21.56;78.60;100385.71;1629119;87;21596;-61
2022/06/30 04:46:12;;;;;;;8.98;5.97;;;;;;;21.61;78.48;100387.13;1627201;87;21118;-61
2022/06/30 04:48:41;;;;;;;7.30;5.78;;;;;;;21.65;77.95;100389.11;1637616;87;21066;-62
2022/06/30 04:51:10;;;;;;;10.65;5.78;;;;;;;21.71;77.56;100384.39;1626930;87;21075;-61
2022/06/30 04:53:40;;;;;;;7.60;4.67;;;;;;;21.79;77.06;100387.50;1631966;87;21106;-64
2022/06/30 04:56:10;;;;;;;9.10;4.53;;;;;;;21.87;76.11;100388.92;1628713;87;21113;-62
2022/06/30 04:58:39;;;;;;;6.95;4.20;;;;;;;21.95;74.60;100387.56;1631197;87;21047;-63
2022/06/30 05:01:08;;;;;;;6.05;4.40;;;;;;;22.07;74.07;100384.84;1609605;87;21106;-62
2022/06/30 05:03:37;;;;;;;5.05;3.98;;;;;;;22.28;72.87;100391.36;1617035;89;21046;-64
2022/06/30 05:06:06;;;;;;;4.58;4.03;;;;;;;22.54;70.82;100397.83;1616738;89;21110;-62
2022/06/30 05:08:35;;;;;;;8.40;4.12;;;;;;;22.80;69.72;100395.09;1603694;89;21041;-63
2022/06/30 05:11:05;;;;;;;6.20;4.22;;;;;;;23.01;68.19;100386.45;1629584;88;21141;-63
2022/06/30 05:13:34;;;;;;;4.60;4.03;;;;;;;23.26;67.93;100391.73;1616308;89;21047;-62
2022/06/30 05:16:05;;;;;;;5.65;4.00;;;;;;;23.52;67.24;100391.99;1631558;88;21095;-62
2022/06/30 05:18:36;;;;;;;4.00;3.60;;;;;;;23.83;65.76;100398.92;1616844;89;21086;-63
2022/06/30 05:21:05;;;;;;;5.53;4.03;;;;;;;24.10;64.58;100399.95;1615965;88;21058;-63
2022/06/30 05:23:36;;;;;;;5.80;4.00;;;;;;;24.36;63.64;100402.08;1616481;88;21537;-63
2022/06/30 05:28:53;;;;;;;5.75;3.90;;;;;;;24.79;61.26;100404.62;1628770;88;21071;-62
2022/06/30 05:31:22;;;;;;;4.92;3.80;;;;;;;25.01;59.63;100412.59;1628809;87;21051;-63
2022/06/30 05:33:53;;;;;;;6.60;4.08;;;;;;;25.19;59.14;100411.88;1628620;87;21133;-62
2022/06/30 05:36:24;;;;;;;4.87;3.80;;;;;;;25.43;58.42;100417.56;1620883;88;21090;-63
2022/06/30 05:38:53;;;;;;;4.97;4.47;;;;;;;25.60;58.12;100406.16;1616899;89;21058;-64
2022/06/30 05:41:24;;;;;;;8.40;4.50;;;;;;;25.77;57.59;100398.70;1601376;89;21579;-63
2022/06/30 05:43:53;;;;;;;5.55;4.28;;;;;;;25.88;56.70;100396.59;1627799;88;21138;-62
2022/06/30 05:46:22;;;;;;;6.45;4.90;;;;;;;26.01;56.39;100402.92;1621346;87;21110;-63
2022/06/30 05:48:54;;;;;;;8.35;4.80;;;;;;;26.12;55.89;100403.05;1617326;88;21086;-63
2022/06/30 05:51:23;;;;;;;5.30;4.55;;;;;;;26.20;56.76;100401.55;1603210;89;21503;-62
2022/06/30 05:53:52;;;;;;;5.72;4.62;;;;;;;26.47;56.05;100410.18;1629884;87;21054;-64
2022/06/30 05:56:22;;;;;;;6.87;4.35;;;;;;;26.68;54.93;100407.92;1617130;88;21486;-63
2022/06/30 05:58:52;;;;;;;6.00;5.00;;;;;;;26.75;54.29;100409.78;1616465;88;21070;-63
2022/06/30 06:01:21;;;;;;;7.42;5.25;;;;;;;26.83;54.91;100409.09;1627038;87;21059;-67
2022/06/30 06:03:52;;;;;;;6.05;4.97;;;;;;;27.02;54.54;100397.84;1639189;86;21078;-63
2022/06/30 06:06:22;;;;;;;6.37;4.47;;;;;;;27.02;53.81;100406.85;1641316;87;21079;-65
2022/06/30 06:08:51;;;;;;;6.65;4.50;;;;;;;27.05;53.28;100405.66;1640492;87;21069;-64
2022/06/30 06:11:22;;;;;;;5.08;4.15;;;;;;;27.22;52.39;100402.27;1639925;87;21094;-63
2022/06/30 06:13:52;;;;;;;6.72;4.53;;;;;;;27.22;52.39;100402.27;1639620;87;21035;-63
2022/06/30 06:16:22;;;;;;;5.72;4.62;;;;;;;27.33;52.51;100407.17;1641401;87;21066;-63
2022/06/30 06:18:52;;;;;;;5.97;4.60;;;;;;;27.44;50.86;100410.91;1638903;87;21046;-66
2022/06/30 06:21:21;;;;;;;8.30;4.95;;;;;;;27.42;51.03;100404.75;1639314;87;21095;-63
2022/06/30 06:23:51;;;;;;;4.60;4.03;;;;;;;27.45;50.50;100404.13;1640148;87;21094;-64
2022/06/30 06:26:21;;;;;;;4.45;3.62;;;;;;;27.48;50.46;100406.89;1638780;87;21086;-63
2022/06/30 06:29:07;;;;;;;5.08;3.80;;;;;;;27.65;49.42;100401.52;1641925;87;21086;-64
2022/06/30 06:31:39;;;;;;;5.70;4.08;;;;;;;28.29;48.13;100390.38;1639916;87;21464;-63
2022/06/30 06:34:09;;;;;;;4.55;3.70;;;;;;;28.29;48.13;100390.38;1642450;87;21015;-63
2022/06/30 06:36:39;;;;;;;5.12;3.95;;;;;;;28.67;47.41;100400.80;1640443;86;21055;-64
2022/06/30 06:39:09;;;;;;;9.40;3.72;;;;;;;28.67;47.41;100400.80;1639816;87;21117;-62
2022/06/30 06:41:39;;;;;;;5.90;4.20;;;;;;;28.85;46.42;100398.98;1639801;86;21075;-65
2022/06/30 06:44:08;;;;;;;3.95;3.55;;;;;;;28.90;45.79;100401.11;1641108;87;21526;-64
2022/06/30 06:46:38;;;;;;;5.05;4.05;;;;;;;28.99;45.22;100399.19;1640377;86;21121;-66
2022/06/30 06:49:08;;;;;;;5.42;3.77;;;;;;;29.02;45.89;100399.95;1639903;87;21054;-65
2022/06/30 06:51:37;;;;;;;4.83;3.58;;;;;;;29.10;45.28;100398.92;1642105;86;21054;-63
2022/06/30 06:54:06;;;;;;;3.92;3.50;;;;;;;29.11;44.50;100399.18;1639505;87;21038;-64
2022/06/30 06:56:37;;;;;;;4.33;3.65;;;;;;;29.13;44.68;100394.88;1639511;87;21078;-63
2022/06/30 06:59:07;;;;;;;4.62;3.80;;;;;;;29.24;43.73;100392.05;1639598;86;21094;-64
2022/06/30 07:01:36;;;;;;;6.90;4.10;;;;;;;29.23;44.67;100395.19;1636005;87;21070;-64
2022/06/30 07:04:07;;;;;;;4.92;4.12;;;;;;;29.34;44.05;100388.98;1624299;88;21096;-64
2022/06/30 07:06:36;;;;;;;4.37;3.65;;;;;;;29.48;44.17;100390.91;1652168;86;21080;-66
2022/06/30 07:09:07;;;;;;;4.75;3.85;;;;;;;29.70;44.14;100396.49;1642046;86;21082;-63
2022/06/30 07:11:37;;;;;;;6.70;4.22;;;;;;;29.85;43.49;100387.58;1631005;86;21075;-65
2022/06/30 07:14:08;;;;;;;6.40;3.70;;;;;;;30.00;43.63;100389.73;1615678;87;21066;-63
2022/06/30 07:16:40;;;;;;;6.37;4.20;;;;;;;30.12;42.88;100389.39;1613307;88;21086;-65
2022/06/30 07:19:11;;;;;;;8.33;4.33;;;;;;;30.17;42.09;100389.23;1652613;86;21088;-64
2022/06/30 07:21:46;;;;;;;4.92;3.98;;;;;;;30.18;42.57;100382.42;1636041;87;21098;-65
2022/06/30 07:24:16;;;;;;;5.25;4.03;;;;;;;30.10;42.67;100377.58;1624923;87;21090;-63
2022/06/30 07:26:47;;;;;;;5.92;4.30;;;;;;;29.91;42.28;100391.95;1631830;87;21058;-63
2022/06/30 07:29:17;;;;;;;5.75;4.30;;;;;;;29.83;42.93;100394.72;1610576;87;21066;-65
2022/06/30 07:31:46;;;;;;;4.90;4.37;;;;;;;30.01;42.81;100389.41;1620063;87;21473;-65
2022/06/30 07:34:16;;;;;;;6.47;4.22;;;;;;;30.41;41.84;100398.67;1632004;87;21086;-63
2022/06/30 07:36:46;;;;;;;5.80;4.03;;;;;;;30.61;41.41;100402.08;1634103;86;21136;-63
2022/06/30 07:39:17;;;;;;;5.40;4.50;;;;;;;30.65;40.63;100400.25;1631666;87;21114;-63
2022/06/30 07:41:48;;;;;;;4.72;3.77;;;;;;;30.48;40.79;100406.08;1635373;87;21140;-63
2022/06/30 07:44:18;;;;;;;5.72;3.90;;;;;;;30.34;40.96;100404.56;1634807;87;21578;-68
2022/06/30 07:46:48;;;;;;;4.55;4.05;;;;;;;30.16;41.45;100407.93;1630516;87;21022;-66
2022/06/30 07:49:18;;;;;;;4.62;4.15;;;;;;;30.09;41.06;100400.52;1613120;87;21113;-68
2022/06/30 07:51:52;;;;;;;4.60;4.20;;;;;;;30.01;41.49;100405.53;1641769;86;21108;-69
2022/06/30 07:54:24;;;;;;;5.00;4.50;;;;;;;29.95;41.82;100411.91;1603934;87;21086;-67
2022/06/30 07:56:55;;;;;;;9.35;5.35;;;;;;;29.93;42.21;100396.70;1634098;87;21463;-66
2022/06/30 07:59:26;;;;;;;6.33;4.78;;;;;;;29.83;42.99;100401.20;1598958;88;21511;-63
2022/06/30 08:01:57;;;;;;;8.00;5.10;;;;;;;29.80;43.36;100391.97;1611506;87;21107;-63
2022/06/30 08:04:27;;;;;;;4.92;4.40;;;;;;;29.95;43.28;100389.30;1608137;89;21071;-63
2022/06/30 08:07:01;;;;;;;6.67;4.80;;;;;;;30.04;43.04;100390.20;1607303;88;21214;-64
2022/06/30 08:09:30;;;;;;;5.22;4.65;;;;;;;30.08;43.00;100388.96;1629749;88;21083;-62
2022/06/30 08:12:03;;;;;;;8.03;4.92;;;;;;;30.17;42.93;100389.81;1617824;88;21074;-63
2022/06/30 08:14:33;;;;;;;10.68;5.70;;;;;;;30.32;42.65;100382.27;1604161;89;21083;-62
2022/06/30 08:17:04;;;;;;;5.78;4.65;;;;;;;30.46;42.60;100383.53;1614111;88;21102;-63
2022/06/30 08:19:35;;;;;;;5.17;3.87;;;;;;;30.71;41.99;100387.02;1602468;89;21083;-63
2022/06/30 08:22:04;;;;;;;6.17;4.30;;;;;;;30.98;41.13;100386.42;1611291;89;21099;-62
2022/06/30 08:24:36;;;;;;;8.40;4.22;;;;;;;31.13;40.14;100381.06;1575648;89;21102;-61
2022/06/30 08:27:07;;;;;;;4.70;4.30;;;;;;;31.11;40.39;100389.06;1611366;89;21505;-62
2022/06/30 08:29:37;;;;;;;5.95;4.70;;;;;;;31.19;39.72;100386.83;1613805;89;21062;-61
2022/06/30 08:32:07;;;;;;;6.65;4.58;;;;;;;31.38;39.55;100387.89;1611791;89;21062;-62
2022/06/30 08:34:37;;;;;;;7.95;4.47;;;;;;;31.52;39.41;100385.69;1613520;89;21486;-62
2022/06/30 08:37:08;;;;;;;4.97;4.05;;;;;;;31.58;39.28;100388.33;1589673;89;21118;-62
2022/06/30 08:42:28;;;;;;;5.20;3.80;;;;;;;31.74;38.54;100382.38;1613722;89;21122;-62
2022/06/30 08:45:13;;;;;;;7.20;4.15;;;;;;;31.70;38.13;100383.64;1611049;89;21079;-64
2022/06/30 08:47:47;;;;;;;4.40;4.00;;;;;;;31.56;38.89;100384.42;1602105;89;21209;-61
2022/06/30 08:50:19;;;;;;;5.65;4.10;;;;;;;31.50;38.96;100388.61;1613711;88;21145;-63
2022/06/30 08:52:54;;;;;;;17.82;5.30;;;;;;;31.51;39.41;100387.44;1602241;89;21486;-63
2022/06/30 08:55:27;;;;;;;5.55;4.10;;;;;;;31.68;39.15;100381.70;1614302;89;21046;-61
2022/06/30 08:58:05;;;;;;;6.30;4.40;;;;;;;31.77;38.64;100381.70;1611121;89;21051;-62
2022/06/30 09:00:36;;;;;;;6.78;4.12;;;;;;;31.82;38.43;100383.75;1610911;88;21103;-64
2022/06/30 09:03:06;;;;;;;4.00;3.58;;;;;;;31.98;37.87;100389.70;1625662;87;21087;-62
2022/06/30 09:05:38;;;;;;;6.40;5.22;;;;;;;32.09;37.09;100377.39;1677109;85;21047;-62
2022/06/30 09:08:09;;;;;;;5.08;4.00;;;;;;;31.99;37.37;100381.45;1652291;85;21050;-64
2022/06/30 09:10:53;;;;;;;5.53;3.70;;;;;;;31.97;37.33;100386.63;1678684;85;21119;-62
2022/06/30 09:13:23;;;;;;;4.30;3.90;;;;;;;31.87;36.97;100391.27;1651528;85;21055;-62
2022/06/30 09:15:53;;;;;;;5.05;4.10;;;;;;;31.77;37.65;100386.78;1660987;85;21058;-62
2022/06/30 09:18:28;;;;;;;4.20;3.80;;;;;;;31.68;37.84;100396.45;1650817;86;21050;-61
2022/06/30 09:20:59;;;;;;;4.72;4.22;;;;;;;31.62;37.90;100398.64;1672603;84;21478;-62
2022/06/30 09:23:30;;;;;;;4.42;4.03;;;;;;;31.47;38.51;100389.28;1679576;85;21136;-64
2022/06/30 09:26:01;;;;;;;5.05;3.90;;;;;;;31.40;38.95;100386.97;1646548;86;21549;-64
2022/06/30 09:28:54;;;;;;;4.70;4.28;;;;;;;31.20;38.42;100393.32;1677458;84;21366;-62
2022/06/30 09:31:39;;;;;;;6.03;4.70;;;;;;;30.97;38.75;100395.48;1683995;85;21062;-62
2022/06/30 09:34:19;;;;;;;4.97;4.47;;;;;;;30.79;39.19;100395.26;1691315;84;21034;-64
2022/06/30 09:36:53;;;;;;;10.88;5.08;;;;;;;30.65;38.72;100386.94;1660546;85;21053;-63
2022/06/30 09:39:23;;;;;;;5.55;4.20;;;;;;;30.36;39.73;100383.86;1683430;84;21091;-65
2022/06/30 09:41:57;;;;;;;5.55;4.30;;;;;;;30.22;40.49;100382.59;1674629;84;21530;-62
2022/06/30 09:44:29;;;;;;;4.85;4.30;;;;;;;30.09;41.06;100384.97;1680733;84;21548;-64
2022/06/30 09:47:08;;;;;;;6.22;4.05;;;;;;;30.01;40.45;100375.86;1680278;84;20991;-64
2022/06/30 09:49:46;;;;;;;5.35;3.92;;;;;;;29.87;40.94;100372.55;1671024;84;21062;-66
2022/06/30 09:52:22;;;;;;;6.12;4.00;;;;;;;29.84;41.04;100373.78;1672404;85;21046;-64
2022/06/30 09:55:06;;;;;;;4.92;4.10;;;;;;;29.79;41.54;100376.17;1678502;85;21058;-65
2022/06/30 09:57:42;;;;;;;6.12;4.12;;;;;;;29.82;41.72;100369.04;1681807;85;21642;-63
2022/06/30 10:00:16;;;;;;;5.22;4.60;;;;;;;29.93;41.41;100366.20;1640090;86;21075;-62
2022/06/30 10:02:49;;;;;;;5.85;4.75;;;;;;;30.03;41.81;100363.68;1652376;85;21078;-64
2022/06/30 10:05:19;;;;;;;5.67;4.75;;;;;;;30.09;41.42;100361.78;1646870;86;21075;-67
2022/06/30 10:07:49;;;;;;;6.10;4.85;;;;;;;30.14;41.65;100365.03;1671737;84;21042;-63
2022/06/30 10:10:19;;;;;;;5.40;4.53;;;;;;;30.14;41.65;100365.03;1669506;84;21062;-63
2022/06/30 10:12:49;;;;;;;4.95;4.28;;;;;;;30.18;41.14;100368.86;1676076;84;21064;-65
2022/06/30 10:15:20;;;;;;;5.50;4.40;;;;;;;30.04;41.03;100360.52;1641301;86;21150;-62
2022/06/30 10:17:55;;;;;;;5.80;5.15;;;;;;;29.89;41.12;100361.75;1638674;87;21038;-62
2022/06/30 10:20:26;;;;;;;8.88;5.60;;;;;;;29.69;40.99;100362.34;1610494;89;21140;-63
2022/06/30 10:22:56;;;;;;;6.03;5.42;;;;;;;29.55;41.66;100360.22;1582529;87;21500;-71
2022/06/30 10:25:29;;;;;;;5.87;5.35;;;;;;;29.62;42.46;100360.00;1651461;87;21251;-72
2022/06/30 10:27:59;;;;;;;7.33;5.15;;;;;;;29.79;42.48;100366.88;1670565;85;21101;-72
2022/06/30 10:30:50;;;;;;;5.55;5.05;;;;;;;29.79;42.48;100366.88;1686421;84;21528;-67
2022/06/30 10:33:35;;;;;;;4.92;4.42;;;;;;;29.85;42.34;100362.73;1660749;85;21095;-65
2022/06/30 10:36:13;;;;;;;5.35;4.75;;;;;;;29.84;41.74;100362.48;1677477;84;21050;-66
2022/06/30 10:39:09;;;;;;;5.83;5.25;;;;;;;29.81;42.35;100363.14;1666412;85;21066;-67
2022/06/30 10:41:45;;;;;;;7.58;5.00;;;;;;;29.77;43.41;100374.27;1651525;85;21525;-68
2022/06/30 10:44:25;;;;;;;8.78;7.67;;;;;;;29.77;43.41;100374.27;1658522;85;21098;-67
2022/06/30 10:47:00;;;;;;;6.55;5.85;;;;;;;29.80;43.02;100376.43;1669881;85;21086;-73
2022/06/30 10:49:32;;;;;;;6.42;5.70;;;;;;;29.70;43.27;100368.25;1672174;84;21078;-65
2022/06/30 10:52:23;;;;;;;7.58;5.15;;;;;;;29.61;43.42;100370.20;1654652;85;21061;-65
2022/06/30 10:54:59;;;;;;;5.65;5.05;;;;;;;29.47;43.95;100369.48;1675160;85;21472;-65
2022/06/30 10:58:03;;;;;;;5.60;4.97;;;;;;;29.30;44.05;100363.97;1664148;85;21102;-66
2022/06/30 11:00:55;;;;;;;7.15;5.42;;;;;;;29.09;44.26;100359.16;1678845;84;21038;-68
2022/06/30 11:03:37;;;;;;;6.80;6.10;;;;;;;28.99;45.41;100359.69;1654764;85;21077;-66
2022/06/30 11:06:10;;;;;;;10.30;6.25;;;;;;;28.96;45.19;100353.85;1661186;86;21082;-67
2022/06/30 11:08:57;;;;;;;6.37;4.75;;;;;;;28.91;45.09;100356.80;1661387;86;21050;-67
2022/06/30 11:11:28;;;;;;;5.90;5.30;;;;;;;28.84;45.20;100350.78;1652300;86;21529;-67
2022/06/30 11:14:07;;;;;;;6.12;5.15;;;;;;;28.78;45.45;100347.23;1662245;86;21059;-66
2022/06/30 11:16:38;;;;;;;6.00;5.40;;;;;;;28.73;45.78;100352.42;1662512;86;21026;-67
2022/06/30 11:19:19;;;;;;;5.58;4.97;;;;;;;28.67;45.64;100353.70;1661467;86;21429;-69
2022/06/30 11:21:48;;;;;;;6.95;5.03;;;;;;;28.58;45.76;100359.81;1614814;88;21099;-65
2022/06/30 11:24:17;;;;;;;5.50;5.00;;;;;;;28.51;45.86;100345.90;1608650;88;21055;-66
2022/06/30 11:29:35;;;;;;;8.28;5.42;;;;;;;28.63;45.84;100345.63;1617144;88;21050;-68
2022/06/30 11:32:05;;;;;;;7.53;5.70;;;;;;;28.69;45.97;100335.88;1616565;89;21042;-66
2022/06/30 11:34:37;;;;;;;6.50;5.50;;;;;;;28.84;46.13;100337.52;1617019;88;21371;-65
2022/06/30 11:37:05;;;;;;;5.80;5.00;;;;;;;28.94;45.63;100340.64;1616891;89;21947;-65
2022/06/30 11:39:36;;;;;;;6.30;5.08;;;;;;;28.94;45.63;100344.88;1608254;88;21568;-65
2022/06/30 11:42:08;;;;;;;5.72;5.08;;;;;;;28.91;45.47;100342.70;1616637;89;21521;-69
2022/06/30 11:44:38;;;;;;;7.22;5.40;;;;;;;28.87;45.56;100340.27;1607995;89;21047;-66
2022/06/30 11:47:11;;;;;;;6.25;5.62;;;;;;;28.87;45.49;100333.22;1617225;88;21098;-66
2022/06/30 11:49:50;;;;;;;6.50;5.42;;;;;;;28.93;45.15;100333.34;1607921;89;21101;-67
2022/06/30 11:52:37;;;;;;;6.47;5.50;;;;;;;28.90;45.07;100328.34;1616623;89;21458;-67
2022/06/30 11:55:17;;;;;;;5.37;4.87;;;;;;;28.88;45.28;100333.47;1616765;89;21170;-68
2022/06/30 11:57:48;;;;;;;8.80;5.47;;;;;;;28.92;45.43;100321.22;1608621;89;21054;-66
2022/06/30 12:00:21;;;;;;;5.58;5.08;;;;;;;29.06;45.04;100324.53;1614599;89;21027;-66